Time;durP1;ratioP1;P1;durP2;ratioP2;P2;SDS_P1;SDS_P2;PMS_P1;PMS_P2;Temp;Humidity;BMP_temperature;BMP_pressure;BME280_temperature;BME280_humidity;BME280_pressure;Samples;Min_cycle;Max_cycle;Signal;HPM_P1;HPM_P2
2020/12/08 00:00:14;;;;;;;9.87;5.03;;;;;;;-4.76;58.91;101955.67;1737150;80;22445;-37
2020/12/08 00:02:41;;;;;;;8.37;4.97;;;;;;;-4.76;59.10;101955.67;1740732;80;21161;-45
2020/12/08 00:05:09;;;;;;;8.00;4.03;;;;;;;-4.74;58.92;101946.58;1734423;82;21679;-43
2020/12/08 00:07:37;;;;;;;9.83;5.70;;;;;;;-4.74;58.93;101943.98;1737427;80;21550;-40
2020/12/08 00:10:05;;;;;;;8.57;5.13;;;;;;;-4.74;59.00;101952.67;1740004;82;21545;-43
2020/12/08 00:12:32;;;;;;;8.87;4.97;;;;;;;-4.74;58.86;101950.06;1743282;80;21105;-41
2020/12/08 00:15:00;;;;;;;11.97;5.47;;;;;;;-4.75;59.00;101948.31;1741183;82;21576;-43
2020/12/08 00:17:27;;;;;;;11.70;6.07;;;;;;;-4.74;59.17;101946.58;1738514;80;21134;-43
2020/12/08 00:19:55;;;;;;;8.53;5.20;;;;;;;-4.72;59.13;101943.61;1744627;80;21134;-39
2020/12/08 00:22:23;;;;;;;11.33;4.57;;;;;;;-4.72;59.21;101941.00;1739995;80;21113;-38
2020/12/08 00:24:51;;;;;;;8.73;5.47;;;;;;;-4.68;59.35;101942.44;1737649;80;21157;-37
2020/12/08 00:27:19;;;;;;;11.17;5.17;;;;;;;-4.64;59.21;101932.97;1741988;80;21133;-37
2020/12/08 00:29:47;;;;;;;11.30;5.80;;;;;;;-4.68;59.02;101934.63;1742348;80;21184;-40
2020/12/08 00:32:14;;;;;;;10.03;5.27;;;;;;;-4.72;59.15;101939.70;1741367;80;21129;-38
2020/12/08 00:34:42;;;;;;;11.33;5.80;;;;;;;-4.74;59.18;101934.44;1745543;80;21114;-39
2020/12/08 00:37:10;;;;;;;8.77;5.33;;;;;;;-4.75;59.11;101922.28;1744306;80;21652;-39
2020/12/08 00:39:37;;;;;;;7.90;5.43;;;;;;;-4.76;58.91;101917.92;1685443;84;21652;-39
2020/12/08 00:42:06;;;;;;;7.27;4.43;;;;;;;-4.80;59.06;101927.78;1692312;84;21161;-41
2020/12/08 00:44:33;;;;;;;7.37;4.83;;;;;;;-4.80;59.14;101922.58;1688531;84;21160;-40
2020/12/08 00:47:03;;;;;;;12.33;5.20;;;;;;;-4.80;59.21;101916.94;1686864;82;21153;-37
2020/12/08 00:49:30;;;;;;;10.47;5.60;;;;;;;-4.77;59.22;101932.19;1687480;83;21148;-41
2020/12/08 00:51:59;;;;;;;9.43;5.87;;;;;;;-4.77;58.97;101914.84;1674130;83;21165;-42
2020/12/08 00:54:27;;;;;;;9.07;5.20;;;;;;;-4.79;59.05;101915.22;1666428;84;21177;-39
2020/12/08 00:56:55;;;;;;;9.53;4.53;;;;;;;-4.82;59.20;101906.03;1668635;84;21169;-38
2020/12/08 00:59:23;;;;;;;10.30;5.57;;;;;;;-4.82;59.25;101896.91;1635735;84;21145;-40
2020/12/08 01:01:51;;;;;;;9.13;4.43;;;;;;;-4.83;59.38;101895.16;1714698;82;21157;-39
2020/12/08 01:04:18;;;;;;;9.00;5.07;;;;;;;-4.84;59.25;101902.50;1711398;82;21633;-46
2020/12/08 01:06:47;;;;;;;7.90;4.70;;;;;;;-4.86;59.11;101904.20;1671174;82;21166;-42
2020/12/08 01:09:14;;;;;;;9.00;5.13;;;;;;;-4.86;59.23;101901.17;1712022;82;21114;-40
2020/12/08 01:11:42;;;;;;;9.70;5.57;;;;;;;-4.84;59.30;101895.98;1713204;82;21186;-41
2020/12/08 01:14:12;;;;;;;10.37;5.30;;;;;;;-4.87;59.19;101897.22;1717803;82;21137;-41
2020/12/08 01:16:41;;;;;;;8.90;4.90;;;;;;;-4.88;59.24;101907.17;1715163;82;21126;-42
2020/12/08 01:19:08;;;;;;;8.80;5.33;;;;;;;-4.92;59.31;101908.80;1714303;82;21565;-41
2020/12/08 01:21:36;;;;;;;7.93;4.87;;;;;;;-4.95;59.24;101907.42;1714314;82;21182;-41
2020/12/08 01:24:04;;;;;;;9.50;5.53;;;;;;;-4.98;59.35;101915.58;1711248;82;21154;-43
2020/12/08 01:26:32;;;;;;;8.57;5.20;;;;;;;-5.00;59.45;101912.91;1710648;82;21128;-41
2020/12/08 01:29:01;;;;;;;9.90;5.53;;;;;;;-5.01;59.31;101914.64;1692898;83;21178;-41
2020/12/08 01:31:31;;;;;;;9.67;5.80;;;;;;;-5.02;59.29;101916.77;1712686;82;21637;-40
2020/12/08 01:34:01;;;;;;;11.25;6.03;;;;;;;-5.02;59.19;101908.95;1708549;82;21166;-45
2020/12/08 01:36:28;;;;;;;10.83;5.57;;;;;;;-5.03;59.41;101912.41;1712525;82;21154;-40
2020/12/08 01:38:56;;;;;;;8.70;5.67;;;;;;;-5.04;59.64;101919.77;1715503;82;21219;-41
2020/12/08 01:41:23;;;;;;;11.17;5.77;;;;;;;-5.06;59.57;101909.73;1716825;82;21531;-38
2020/12/08 01:43:52;;;;;;;10.90;5.47;;;;;;;-5.06;59.65;101910.16;1670984;82;21171;-43
2020/12/08 01:46:24;;;;;;;12.07;5.80;;;;;;;-5.04;59.73;101922.38;1710920;82;21162;-41
2020/12/08 01:48:53;;;;;;;11.27;5.93;;;;;;;-5.03;59.79;101911.11;1684687;83;21165;-41
2020/12/08 01:51:22;;;;;;;9.53;5.20;;;;;;;-5.04;59.72;101908.06;1686900;81;21176;-40
2020/12/08 01:53:53;;;;;;;10.93;5.30;;;;;;;-5.07;59.78;101911.84;1707609;82;21162;-41
2020/12/08 01:56:22;;;;;;;11.40;5.93;;;;;;;-5.07;59.91;101917.05;1709262;82;21154;-39
2020/12/08 01:58:52;;;;;;;8.83;4.90;;;;;;;-5.07;59.94;101905.34;1715788;82;21190;-39
2020/12/08 02:01:19;;;;;;;8.13;5.23;;;;;;;-5.06;60.12;101913.63;1710113;82;21156;-39
2020/12/08 02:03:49;;;;;;;9.40;6.03;;;;;;;-5.04;59.99;101909.36;1709049;82;21122;-38
2020/12/08 02:06:17;;;;;;;8.17;4.93;;;;;;;-5.00;59.96;101912.48;1712104;82;21130;-41
2020/12/08 02:08:45;;;;;;;11.63;5.83;;;;;;;-5.01;60.00;101915.07;1705363;82;21133;-41
2020/12/08 02:11:14;;;;;;;9.53;5.47;;;;;;;-5.03;60.00;101923.25;1716233;82;21162;-39
2020/12/08 02:13:43;;;;;;;10.03;6.13;;;;;;;-5.03;60.07;101918.91;1711070;82;21153;-42
2020/12/08 02:16:11;;;;;;;9.30;5.27;;;;;;;-5.04;59.99;101913.27;1710829;82;21139;-39
2020/12/08 02:18:38;;;;;;;10.03;5.30;;;;;;;-5.03;60.05;101921.94;1721840;82;21469;-40
2020/12/08 02:21:06;;;;;;;9.73;5.73;;;;;;;-5.03;60.08;101914.14;1710945;82;21438;-45
2020/12/08 02:23:36;;;;;;;9.53;5.53;;;;;;;-5.03;60.01;101914.14;1712987;82;21639;-43
2020/12/08 02:26:05;;;;;;;15.13;6.87;;;;;;;-5.05;59.98;101912.78;1713801;82;21146;-43
2020/12/08 02:28:34;;;;;;;10.17;5.57;;;;;;;-5.06;60.23;101914.06;1716777;82;22201;-40
2020/12/08 02:31:03;;;;;;;9.63;5.50;;;;;;;-5.08;60.21;101910.53;1710688;82;21138;-42
2020/12/08 02:33:31;;;;;;;11.80;6.30;;;;;;;-5.11;60.32;101904.81;1723061;82;21181;-41
2020/12/08 02:36:01;;;;;;;10.80;5.20;;;;;;;-5.09;60.36;101912.64;1714094;82;21125;-41
2020/12/08 02:38:29;;;;;;;8.03;5.17;;;;;;;-5.11;60.38;101910.45;1687187;83;21138;-40
2020/12/08 02:40:57;;;;;;;13.17;6.17;;;;;;;-5.11;60.49;101911.75;1715242;82;21142;-38
2020/12/08 02:43:25;;;;;;;8.30;6.00;;;;;;;-5.11;60.46;101902.64;1714765;82;21110;-39
2020/12/08 02:45:58;;;;;;;12.35;4.97;;;;;;;-5.09;60.48;101903.54;1714705;82;21130;-41
2020/12/08 02:48:26;;;;;;;8.43;5.33;;;;;;;-5.07;60.55;101899.27;1713657;82;21165;-39
2020/12/08 02:50:57;;;;;;;8.78;5.92;;;;;;;-5.06;60.70;101899.75;1714143;82;21126;-40
2020/12/08 02:53:25;;;;;;;12.70;5.57;;;;;;;-5.07;60.62;101898.84;1709429;82;21158;-42
2020/12/08 02:55:55;;;;;;;9.50;5.60;;;;;;;-5.06;60.71;101899.32;1713469;82;21122;-39
2020/12/08 02:58:23;;;;;;;12.00;5.93;;;;;;;-5.06;60.70;101894.55;1706873;82;21124;-40
2020/12/08 03:00:51;;;;;;;12.43;6.80;;;;;;;-5.06;60.66;101895.84;1686802;82;21179;-44
2020/12/08 03:03:19;;;;;;;9.50;5.77;;;;;;;-5.03;60.57;101899.40;1714774;82;21143;-40
2020/12/08 03:05:46;;;;;;;8.57;5.10;;;;;;;-5.00;60.61;101893.39;1710769;82;21150;-40
2020/12/08 03:08:15;;;;;;;9.87;6.27;;;;;;;-4.97;60.53;101885.67;1703306;82;21178;-40
2020/12/08 03:10:42;;;;;;;11.67;6.10;;;;;;;-4.95;60.46;101883.12;1706497;82;21158;-41
2020/12/08 03:13:11;;;;;;;8.63;5.40;;;;;;;-4.95;60.38;101895.70;1703435;82;21139;-42
2020/12/08 03:15:41;;;;;;;9.60;5.53;;;;;;;-4.94;60.33;101892.67;1676284;82;21923;-42
2020/12/08 03:18:09;;;;;;;14.93;6.30;;;;;;;-4.94;60.53;101897.45;1682880;83;21192;-42
2020/12/08 03:20:37;;;;;;;12.77;6.40;;;;;;;-4.92;60.60;101898.38;1705165;82;21526;-42
2020/12/08 03:23:06;;;;;;;10.47;5.73;;;;;;;-4.93;60.65;101891.86;1680109;83;21150;-41
2020/12/08 03:25:35;;;;;;;12.07;6.23;;;;;;;-4.95;60.78;101883.12;1715795;82;21676;-43
2020/12/08 03:28:04;;;;;;;10.00;5.73;;;;;;;-4.93;60.77;101881.45;1705863;82;21103;-40
2020/12/08 03:30:33;;;;;;;11.10;6.10;;;;;;;-4.93;60.66;101883.63;1704581;82;21122;-38
2020/12/08 03:33:02;;;;;;;11.30;6.57;;;;;;;-4.94;60.80;101882.27;1689841;83;21158;-41
2020/12/08 03:35:30;;;;;;;9.87;5.57;;;;;;;-4.95;60.83;101884.42;1715308;82;21134;-39
2020/12/08 03:37:57;;;;;;;9.17;5.67;;;;;;;-4.94;60.90;101878.36;1705292;82;21171;-41
2020/12/08 03:40:26;;;;;;;11.70;6.00;;;;;;;-4.94;60.90;101886.17;1706061;82;22213;-41
2020/12/08 03:42:54;;;;;;;12.30;5.83;;;;;;;-4.92;60.99;101871.48;1703388;82;21135;-41
2020/12/08 03:45:23;;;;;;;11.10;5.50;;;;;;;-4.92;61.06;101877.56;1705433;82;21174;-42
2020/12/08 03:47:52;;;;;;;11.80;6.40;;;;;;;-4.91;61.10;101879.34;1703052;82;21170;-39
2020/12/08 03:50:21;;;;;;;10.70;6.80;;;;;;;-4.90;61.16;101875.89;1703743;82;21166;-38
2020/12/08 03:52:49;;;;;;;7.67;5.37;;;;;;;-4.91;61.12;101875.44;1702795;82;21150;-42
2020/12/08 03:55:17;;;;;;;10.10;5.77;;;;;;;-4.92;60.98;101880.59;1711438;82;21145;-41
2020/12/08 03:57:46;;;;;;;11.60;5.60;;;;;;;-4.93;61.17;101882.75;1708308;82;21562;-39
2020/12/08 04:00:14;;;;;;;10.17;4.73;;;;;;;-4.94;61.26;101880.53;1704729;82;21126;-41
2020/12/08 04:02:44;;;;;;;9.33;5.57;;;;;;;-4.91;61.34;101877.17;1703937;82;21922;-39
2020/12/08 04:05:13;;;;;;;11.90;6.70;;;;;;;-4.90;61.38;101876.31;1701548;82;21565;-39
2020/12/08 04:07:42;;;;;;;12.03;6.87;;;;;;;-4.92;61.37;101869.75;1703832;82;21169;-39
2020/12/08 04:10:10;;;;;;;9.57;5.07;;;;;;;-4.92;61.43;101867.16;1704849;82;21118;-39
2020/12/08 04:12:37;;;;;;;10.33;5.90;;;;;;;-4.90;61.38;101869.81;1705348;82;21111;-39
2020/12/08 04:15:05;;;;;;;10.67;5.93;;;;;;;-4.87;61.54;101872.06;1684670;83;21146;-40
2020/12/08 04:17:34;;;;;;;10.17;5.70;;;;;;;-4.84;61.45;101868.66;1702503;82;21127;-41
2020/12/08 04:20:03;;;;;;;11.83;6.43;;;;;;;-4.86;61.41;101862.55;1684489;83;21268;-40
2020/12/08 04:22:31;;;;;;;11.50;5.73;;;;;;;-4.87;61.37;101863.38;1703689;82;21158;-42
2020/12/08 04:24:59;;;;;;;10.13;6.10;;;;;;;-4.88;61.34;101865.53;1705711;82;21165;-39
2020/12/08 04:27:27;;;;;;;11.57;6.53;;;;;;;-4.89;61.46;101862.45;1704126;82;21725;-40
2020/12/08 04:29:57;;;;;;;11.43;6.43;;;;;;;-4.88;61.57;101859.02;1704944;82;21605;-41
2020/12/08 04:32:26;;;;;;;10.97;5.77;;;;;;;-4.88;61.54;101865.53;1706198;82;21692;-41
2020/12/08 04:34:55;;;;;;;10.70;7.00;;;;;;;-4.91;61.56;101861.13;1705178;82;21150;-42
2020/12/08 04:37:23;;;;;;;9.87;6.20;;;;;;;-4.95;61.63;101857.97;1703979;82;21566;-39
2020/12/08 04:39:50;;;;;;;11.17;6.23;;;;;;;-4.98;61.78;101861.80;1706084;82;21188;-41
2020/12/08 04:42:18;;;;;;;10.43;5.70;;;;;;;-5.00;61.90;101861.74;1704017;82;21107;-38
2020/12/08 04:44:45;;;;;;;9.93;6.27;;;;;;;-5.00;61.97;101857.84;1706944;82;21622;-40
2020/12/08 04:47:21;;;;;;;10.43;5.67;;;;;;;-5.01;62.03;101861.72;1706328;82;21637;-44
2020/12/08 04:49:55;;;;;;;10.13;5.90;;;;;;;-5.04;62.09;101864.21;1706796;82;21169;-39
2020/12/08 04:52:22;;;;;;;16.53;7.00;;;;;;;-5.07;62.15;101865.44;1703464;82;21150;-43
2020/12/08 04:54:50;;;;;;;11.00;6.20;;;;;;;-5.07;62.48;101859.81;1701786;82;21617;-43
2020/12/08 04:57:18;;;;;;;12.60;7.17;;;;;;;-5.07;62.34;101860.23;1679424;84;21173;-40
2020/12/08 04:59:45;;;;;;;9.13;5.57;;;;;;;-5.08;62.36;101860.66;1692002;83;21294;-40
2020/12/08 05:02:13;;;;;;;11.87;5.23;;;;;;;-5.08;62.48;101859.78;1667060;84;21171;-42
2020/12/08 05:04:41;;;;;;;11.17;5.67;;;;;;;-5.07;62.28;101860.23;1709404;82;21175;-44
2020/12/08 05:07:08;;;;;;;10.73;5.80;;;;;;;-5.07;62.14;101863.71;1709132;82;21768;-40
2020/12/08 05:09:46;;;;;;;16.87;5.83;;;;;;;-5.08;62.17;101863.69;1706256;82;21122;-44
2020/12/08 05:12:22;;;;;;;13.17;6.27;;;;;;;-5.09;62.33;101874.91;1711336;82;21186;-44
2020/12/08 05:14:51;;;;;;;10.10;6.13;;;;;;;-5.15;62.20;101865.66;1711067;82;21110;-41
2020/12/08 05:17:27;;;;;;;13.57;6.50;;;;;;;-5.19;62.43;101867.70;1708372;82;21131;-40
2020/12/08 05:20:07;;;;;;;9.07;5.90;;;;;;;-5.21;62.42;101865.08;1709401;82;21142;-44
2020/12/08 05:22:35;;;;;;;13.73;6.97;;;;;;;-5.23;62.62;101861.12;1698995;82;21153;-43
2020/12/08 05:25:11;;;;;;;10.70;5.70;;;;;;;-5.25;62.86;101856.28;1711401;82;21181;-41
2020/12/08 05:27:39;;;;;;;10.27;5.50;;;;;;;-5.22;62.78;101861.99;1710643;82;21130;-42
2020/12/08 05:30:07;;;;;;;12.43;6.37;;;;;;;-5.24;62.76;101860.67;1707404;82;21138;-39
2020/12/08 05:32:38;;;;;;;9.80;5.17;;;;;;;-5.24;62.87;101851.56;1707287;82;21153;-39
2020/12/08 05:35:09;;;;;;;8.30;5.83;;;;;;;-5.19;62.94;101856.90;1713986;82;21114;-38
2020/12/08 05:37:38;;;;;;;9.75;5.87;;;;;;;-5.19;62.94;101856.90;1711072;82;21308;-44
2020/12/08 05:40:09;;;;;;;13.43;6.50;;;;;;;-5.18;63.04;101857.34;1711267;82;21914;-42
2020/12/08 05:42:42;;;;;;;10.03;5.70;;;;;;;-5.19;63.05;101862.10;1707811;82;21142;-41
2020/12/08 05:45:12;;;;;;;12.67;6.87;;;;;;;-5.21;63.08;101862.47;1712315;82;21443;-44
2020/12/08 05:47:54;;;;;;;12.50;6.62;;;;;;;-5.19;63.15;101866.00;1710961;82;21146;-44
2020/12/08 05:50:24;;;;;;;11.43;5.90;;;;;;;-5.17;63.23;101858.22;1708071;82;21129;-39
2020/12/08 05:52:56;;;;;;;11.47;6.83;;;;;;;-5.16;63.44;101859.58;1710948;82;21138;-43
2020/12/08 05:55:30;;;;;;;10.53;4.90;;;;;;;-5.16;63.24;101862.18;1708672;82;21134;-45
2020/12/08 05:58:07;;;;;;;10.87;6.17;;;;;;;-5.17;63.13;101857.80;1701787;82;21141;-43
2020/12/08 06:00:34;;;;;;;8.90;5.00;;;;;;;-5.19;63.26;101860.80;1719764;82;21137;-44
2020/12/08 06:03:16;;;;;;;9.07;5.77;;;;;;;-5.24;63.32;101860.67;1718088;82;21298;-43
2020/12/08 06:05:48;;;;;;;9.80;5.60;;;;;;;-5.25;63.44;101869.72;1718900;82;21149;-45
2020/12/08 06:08:17;;;;;;;9.40;5.30;;;;;;;-5.26;63.54;101872.74;1717228;83;21313;-45
2020/12/08 06:10:54;;;;;;;10.90;5.97;;;;;;;-5.29;64.25;101870.45;1719767;82;21121;-44
2020/12/08 06:13:29;;;;;;;13.00;6.47;;;;;;;-5.20;66.53;101871.15;1719936;82;21557;-46
2020/12/08 06:15:59;;;;;;;10.20;5.87;;;;;;;-5.08;66.22;101864.56;1719402;82;21169;-41
2020/12/08 06:18:30;;;;;;;11.27;5.93;;;;;;;-4.94;65.66;101864.92;1720234;82;21150;-38
2020/12/08 06:20:58;;;;;;;8.93;5.30;;;;;;;-4.84;65.58;101866.05;1720290;82;21661;-38
2020/12/08 06:23:25;;;;;;;10.67;5.60;;;;;;;-4.74;65.26;101875.86;1718058;82;21288;-38
2020/12/08 06:26:02;;;;;;;10.93;6.53;;;;;;;-4.65;64.70;101871.34;1716314;82;21153;-38
2020/12/08 06:28:30;;;;;;;9.63;6.00;;;;;;;-4.65;64.38;101869.61;1717772;82;21844;-40
2020/12/08 06:31:05;;;;;;;11.57;6.83;;;;;;;-4.66;64.07;101873.45;1722613;82;21276;-38
2020/12/08 06:33:49;;;;;;;11.13;6.67;;;;;;;-4.68;63.88;101869.96;1716847;82;21414;-37
2020/12/08 06:36:21;;;;;;;11.33;6.33;;;;;;;-4.73;63.61;101878.95;1720477;82;21141;-38
2020/12/08 06:39:07;;;;;;;10.67;6.57;;;;;;;-4.77;63.45;101873.61;1721870;82;21130;-40
2020/12/08 06:41:37;;;;;;;10.17;6.00;;;;;;;-4.82;63.54;101872.19;1718428;82;21291;-42
2020/12/08 06:44:05;;;;;;;10.23;6.43;;;;;;;-4.86;63.56;101876.88;1715436;83;21170;-42
2020/12/08 06:46:33;;;;;;;9.67;6.57;;;;;;;-4.86;63.63;101876.88;1721552;82;21141;-43
2020/12/08 06:49:03;;;;;;;9.27;6.30;;;;;;;-4.88;63.61;101874.22;1719157;82;21163;-46
2020/12/08 06:51:31;;;;;;;14.63;6.20;;;;;;;-4.90;63.46;101873.71;1712867;82;21141;-46
2020/12/08 06:53:59;;;;;;;10.83;5.63;;;;;;;-4.91;64.76;101879.34;1720351;82;21716;-42
2020/12/08 06:56:31;;;;;;;11.80;6.47;;;;;;;-4.93;64.70;101877.11;1713706;82;21449;-40
2020/12/08 06:59:00;;;;;;;9.45;6.28;;;;;;;-4.92;64.38;101877.98;1695335;82;21140;-43
2020/12/08 07:01:29;;;;;;;11.47;5.13;;;;;;;-4.91;64.49;101878.05;1700448;82;21589;-42
2020/12/08 07:03:56;;;;;;;10.20;5.83;;;;;;;-4.91;64.27;101878.05;1685496;82;21165;-40
2020/12/08 07:06:26;;;;;;;10.57;4.60;;;;;;;-4.90;64.26;101877.62;1699190;82;21186;-41
2020/12/08 07:08:55;;;;;;;8.98;5.35;;;;;;;-4.91;64.27;101881.95;1682610;82;21201;-41
2020/12/08 07:11:24;;;;;;;10.03;6.20;;;;;;;-4.93;63.98;101875.81;1713145;82;21142;-42
2020/12/08 07:14:00;;;;;;;8.07;5.17;;;;;;;-4.93;63.84;101878.84;1700863;82;21147;-47
2020/12/08 07:16:29;;;;;;;10.27;6.27;;;;;;;-4.95;63.65;101864.91;1702159;82;21542;-48
2020/12/08 07:18:57;;;;;;;8.77;5.60;;;;;;;-4.95;63.92;101872.70;1703926;82;21154;-45
2020/12/08 07:21:25;;;;;;;10.40;5.90;;;;;;;-4.97;63.86;101866.15;1699102;82;21146;-45
2020/12/08 07:23:55;;;;;;;10.37;6.20;;;;;;;-4.98;63.73;101867.00;1689997;82;21173;-45
2020/12/08 07:26:26;;;;;;;16.13;7.17;;;;;;;-4.96;63.80;101873.53;1704574;82;21211;-46
2020/12/08 07:28:55;;;;;;;9.85;5.20;;;;;;;-4.95;63.92;101867.50;1698355;82;21578;-45
2020/12/08 07:31:25;;;;;;;14.60;6.43;;;;;;;-4.98;63.80;101876.11;1703089;82;21159;-45
2020/12/08 07:33:53;;;;;;;10.70;5.60;;;;;;;-4.96;63.71;101874.44;1698204;82;21142;-44
2020/12/08 07:36:27;;;;;;;11.93;6.93;;;;;;;-4.92;63.53;101883.19;1705965;82;21581;-45
2020/12/08 07:38:56;;;;;;;15.70;8.40;;;;;;;-4.91;63.80;101870.23;1699982;82;21146;-45
2020/12/08 07:41:26;;;;;;;11.47;6.47;;;;;;;-4.90;67.78;101874.59;1700068;82;21741;-45
2020/12/08 07:43:55;;;;;;;11.60;6.80;;;;;;;-4.88;65.11;101875.95;1701595;82;21137;-44
2020/12/08 07:46:30;;;;;;;11.90;5.43;;;;;;;-4.84;64.51;101879.98;1705138;82;21126;-46
2020/12/08 07:49:05;;;;;;;11.30;6.63;;;;;;;-4.82;64.32;101874.36;1705413;82;21373;-47
2020/12/08 07:51:34;;;;;;;15.47;6.80;;;;;;;-4.82;64.48;101875.66;1698255;82;21685;-44
2020/12/08 07:54:04;;;;;;;11.23;6.00;;;;;;;-4.83;66.37;101879.12;1705954;82;21145;-45
2020/12/08 07:56:34;;;;;;;10.70;6.87;;;;;;;-4.82;65.05;101877.39;1700856;82;21546;-42
2020/12/08 07:59:03;;;;;;;12.40;7.00;;;;;;;-4.80;64.71;101880.92;1677497;82;21721;-41
2020/12/08 08:01:40;;;;;;;11.77;6.60;;;;;;;-4.77;64.65;101880.13;1669681;84;21908;-42
2020/12/08 08:04:09;;;;;;;10.80;6.17;;;;;;;-4.77;64.57;101878.39;1669925;84;21161;-42
2020/12/08 08:06:36;;;;;;;14.23;7.63;;;;;;;-4.76;64.46;101880.17;1662450;84;21197;-45
2020/12/08 08:09:06;;;;;;;12.53;6.47;;;;;;;-4.74;64.41;101877.16;1670102;84;21157;-45
2020/12/08 08:11:38;;;;;;;13.53;6.47;;;;;;;-4.72;64.20;101882.00;1667644;84;21176;-44
2020/12/08 08:14:06;;;;;;;10.80;6.37;;;;;;;-4.67;64.28;101875.19;1665508;84;21171;-47
2020/12/08 08:16:34;;;;;;;10.77;6.57;;;;;;;-4.64;64.21;101875.69;1668277;84;21199;-47
2020/12/08 08:19:02;;;;;;;9.93;6.37;;;;;;;-4.63;64.26;101869.23;1665529;84;21564;-45
2020/12/08 08:21:30;;;;;;;11.80;5.77;;;;;;;-4.60;64.22;101864.52;1669617;84;21620;-42
2020/12/08 08:26:16;;;;;;;10.13;5.77;;;;;;;-4.50;64.27;101869.55;1766336;79;23053;-40
2020/12/08 08:28:50;;;;;;;10.77;6.50;;;;;;;-4.53;64.02;101872.95;1738096;80;21181;-41
2020/12/08 08:31:17;;;;;;;11.83;7.70;;;;;;;-4.49;63.98;101862.17;1738495;80;21157;-42
2020/12/08 08:33:44;;;;;;;13.20;6.50;;;;;;;-4.47;63.78;101865.28;1734939;80;21644;-39
2020/12/08 08:36:12;;;;;;;10.80;6.40;;;;;;;-4.46;63.54;101866.16;1727927;80;21153;-41
2020/12/08 08:38:41;;;;;;;12.83;6.23;;;;;;;-4.45;63.31;101858.81;1744330;80;21568;-39
2020/12/08 08:41:09;;;;;;;9.97;6.60;;;;;;;-4.45;63.27;101856.22;1737201;80;21201;-44
2020/12/08 08:43:36;;;;;;;12.67;6.47;;;;;;;-4.45;63.35;101856.22;1707938;82;21133;-42
2020/12/08 08:46:04;;;;;;;11.30;6.40;;;;;;;-4.43;63.22;101851.93;1735762;80;21142;-43
2020/12/08 08:48:32;;;;;;;13.07;6.37;;;;;;;-4.38;63.31;101857.70;1729777;80;22020;-48
2020/12/08 08:50:59;;;;;;;10.53;5.67;;;;;;;-4.31;63.19;101850.89;1688076;83;21148;-43
2020/12/08 08:53:27;;;;;;;10.63;6.20;;;;;;;-4.30;62.98;101843.56;1642996;85;21178;-45
2020/12/08 08:55:54;;;;;;;12.33;6.47;;;;;;;-4.27;62.81;101843.63;1722851;81;21133;-41
2020/12/08 08:58:22;;;;;;;13.43;6.10;;;;;;;-4.27;63.31;101842.75;1673864;84;21615;-43
2020/12/08 09:00:50;;;;;;;10.43;6.03;;;;;;;-4.29;62.72;101838.80;1671583;84;21194;-41
2020/12/08 09:03:18;;;;;;;13.20;5.47;;;;;;;-4.27;62.55;101837.54;1670101;84;21184;-43
2020/12/08 09:05:46;;;;;;;10.23;5.87;;;;;;;-4.26;62.44;101832.38;1667467;84;21178;-40
2020/12/08 09:08:15;;;;;;;11.80;5.90;;;;;;;-4.26;62.61;101826.26;1669578;84;21190;-42
2020/12/08 09:10:42;;;;;;;11.53;5.30;;;;;;;-4.25;62.77;101833.25;1671338;86;21167;-40
2020/12/08 09:13:10;;;;;;;8.93;5.30;;;;;;;-4.23;62.71;101830.27;1671454;85;21162;-39
2020/12/08 09:15:38;;;;;;;12.57;5.87;;;;;;;-4.21;62.75;101832.46;1668850;84;21177;-41
2020/12/08 09:18:06;;;;;;;9.83;5.40;;;;;;;-4.19;62.74;101835.55;1667505;84;21178;-40
2020/12/08 09:20:33;;;;;;;9.50;5.47;;;;;;;-4.17;62.98;101836.91;1670612;84;21163;-44
2020/12/08 09:23:01;;;;;;;9.83;5.47;;;;;;;-4.16;63.12;101831.75;1670096;84;21156;-39
2020/12/08 09:25:28;;;;;;;12.13;6.37;;;;;;;-4.15;63.08;101831.32;1660673;84;21196;-39
2020/12/08 09:27:56;;;;;;;13.40;5.87;;;;;;;-4.14;63.77;101831.77;1706402;82;21131;-41
2020/12/08 09:30:25;;;;;;;10.67;5.13;;;;;;;-4.16;64.24;101841.27;1699364;82;21138;-40
2020/12/08 09:32:52;;;;;;;10.93;5.80;;;;;;;-4.18;63.75;101836.03;1703958;81;21154;-42
2020/12/08 09:35:20;;;;;;;13.93;6.67;;;;;;;-4.18;64.67;101839.07;1706673;82;21120;-39
2020/12/08 09:37:48;;;;;;;9.00;5.63;;;;;;;-4.15;64.08;101835.23;1701377;82;21574;-41
2020/12/08 09:40:15;;;;;;;8.30;5.07;;;;;;;-4.13;63.83;101837.45;1706703;82;21138;-40
2020/12/08 09:42:44;;;;;;;9.10;6.50;;;;;;;-4.10;63.58;101841.85;1677426;84;21307;-40
2020/12/08 09:45:12;;;;;;;10.03;5.33;;;;;;;-4.08;63.55;101841.44;1708908;82;21602;-43
2020/12/08 09:47:40;;;;;;;11.77;6.03;;;;;;;-4.10;63.83;101840.13;1668014;85;21158;-43
2020/12/08 09:50:09;;;;;;;10.50;6.17;;;;;;;-4.08;63.57;101840.14;1703789;82;21182;-39
2020/12/08 09:52:37;;;;;;;12.43;6.60;;;;;;;-4.08;63.55;101841.44;1707294;82;21174;-43
2020/12/08 09:55:06;;;;;;;8.80;5.77;;;;;;;-4.08;63.71;101842.34;1676165;84;21133;-43
2020/12/08 09:57:33;;;;;;;12.33;6.67;;;;;;;-4.07;63.67;101837.58;1708230;82;21146;-39
2020/12/08 10:00:01;;;;;;;12.23;6.50;;;;;;;-4.05;63.69;101834.59;1709651;82;21162;-41
2020/12/08 10:02:30;;;;;;;11.50;6.63;;;;;;;-4.02;63.52;101842.91;1702854;82;21291;-44
2020/12/08 10:04:58;;;;;;;17.47;7.70;;;;;;;-4.05;63.63;101833.28;1704983;82;21149;-38
2020/12/08 10:07:25;;;;;;;12.47;7.07;;;;;;;-4.07;63.89;101832.36;1705290;82;21142;-41
2020/12/08 10:09:53;;;;;;;13.20;6.87;;;;;;;-4.06;63.96;101831.50;1704594;82;21147;-40
2020/12/08 10:12:21;;;;;;;14.57;7.57;;;;;;;-4.02;64.08;101836.39;1671969;84;21193;-41
2020/12/08 10:14:48;;;;;;;13.07;6.50;;;;;;;-4.05;63.99;101826.77;1704561;84;21161;-38
2020/12/08 10:17:16;;;;;;;13.00;7.23;;;;;;;-4.05;64.12;101830.69;1705039;82;21149;-40
2020/12/08 10:19:44;;;;;;;13.43;6.73;;;;;;;-4.03;64.15;101832.00;1708117;82;21732;-44
2020/12/08 10:22:12;;;;;;;14.30;7.30;;;;;;;-4.02;64.16;101824.23;1676579;84;21165;-41
2020/12/08 10:24:40;;;;;;;13.00;7.67;;;;;;;-3.99;64.32;101821.68;1702248;82;21202;-43
2020/12/08 10:27:08;;;;;;;12.97;8.07;;;;;;;-3.93;64.08;101828.35;1704923;82;21158;-43
2020/12/08 10:29:36;;;;;;;12.27;6.87;;;;;;;-3.93;63.75;101821.84;1702304;82;21138;-41
2020/12/08 10:32:03;;;;;;;12.83;6.97;;;;;;;-3.95;63.41;101818.31;1705880;82;21158;-42
2020/12/08 10:34:31;;;;;;;13.20;6.30;;;;;;;-3.99;63.70;101816.47;1672504;84;21182;-47
2020/12/08 10:36:59;;;;;;;14.93;8.87;;;;;;;-3.98;63.75;101817.34;1710967;82;21144;-44
2020/12/08 10:39:27;;;;;;;12.50;6.63;;;;;;;-3.97;63.64;101813.91;1713014;82;21509;-37
2020/12/08 10:41:56;;;;;;;13.93;7.00;;;;;;;-3.95;63.96;101808.31;1704763;82;21166;-40
2020/12/08 10:44:24;;;;;;;12.67;7.27;;;;;;;-3.92;63.77;101811.85;1699961;82;21138;-44
2020/12/08 10:46:52;;;;;;;10.33;6.03;;;;;;;-3.90;63.61;101809.72;1704353;82;21705;-41
2020/12/08 10:49:20;;;;;;;11.93;6.30;;;;;;;-3.92;63.55;101808.38;1713933;82;21191;-41
2020/12/08 10:51:48;;;;;;;15.60;6.60;;;;;;;-3.93;63.64;101801.41;1704294;82;21141;-45
2020/12/08 10:54:16;;;;;;;11.37;6.70;;;;;;;-3.90;63.50;101805.38;1699876;84;21161;-41
2020/12/08 10:56:43;;;;;;;11.33;6.43;;;;;;;-3.88;63.72;101808.00;1675110;84;22070;-47
2020/12/08 10:59:10;;;;;;;15.53;8.10;;;;;;;-3.87;63.70;101800.23;1696391;82;21130;-44
2020/12/08 11:01:39;;;;;;;11.73;6.00;;;;;;;-3.84;63.71;101808.11;1703183;82;21170;-41
2020/12/08 11:04:07;;;;;;;11.43;7.50;;;;;;;-3.83;63.81;101808.58;1705220;82;21114;-45
2020/12/08 11:06:35;;;;;;;15.60;8.73;;;;;;;-3.81;63.63;101805.98;1701886;82;21148;-41
2020/12/08 11:09:03;;;;;;;11.07;6.50;;;;;;;-3.83;63.56;101815.50;1705715;82;21162;-42
2020/12/08 11:11:32;;;;;;;15.40;7.47;;;;;;;-3.86;63.65;101814.13;1706973;82;21688;-43
2020/12/08 11:14:00;;;;;;;12.53;6.90;;;;;;;-3.83;63.76;101810.28;1700218;82;21149;-46
2020/12/08 11:16:28;;;;;;;10.87;6.77;;;;;;;-3.86;67.95;101815.44;1664163;85;21605;-37
2020/12/08 11:18:56;;;;;;;11.07;7.47;;;;;;;-3.85;66.07;101808.97;1708089;82;21587;-37
2020/12/08 11:21:27;;;;;;;12.37;6.80;;;;;;;-3.81;65.03;101818.59;1672717;84;21157;-36
2020/12/08 11:23:55;;;;;;;13.40;7.78;;;;;;;-3.78;64.83;101807.34;1700907;82;21155;-40
2020/12/08 11:26:24;;;;;;;12.33;7.20;;;;;;;-3.77;64.75;101807.39;1710630;82;21151;-39
2020/12/08 11:28:52;;;;;;;12.47;5.90;;;;;;;-3.75;64.63;101808.31;1716468;82;21301;-45